Nebo, Virginia
Current Conditions -  °F | °C
As of 5:35 AM on Sunday 26 Oct 2014 (Local Time) from KMKJ Reporting Station
Scattered Clouds Scattered Clouds  
Wind Chill: 53°   Ceiling: Unl
Heat Index: 53°   Visibility: 10mi
Dew Point: 49°   Wind: 16mph
Humidity: 88%   Direction: 240°WSW
Pressure: 29.95"   Gusts: 23mph
Location:  37.0101°N, 81.365°W
Report Text: KMKJ 260935Z AUTO 24014G20KT 10SM SCT025 SCT031 SCT037 11/10 A2995 RMK AO2 T01140095
Loading
Personal Weather Stations






























Interactive Weather Map
Tropical Storm Tracking
New forecast layout! Learn more

10-Day Weather Forecast

Advertisements
Track Severe Weather on mobile